This is the latest recevied weather packets stored in our database for station/object KD7AWQ. If no packets are shown the sender has not sent any weather packets the latest 1 day(s).
| Time | Temp. | Humidity | Pressure | Rain* | Wind** | Luminosity | Snow |
|---|---|---|---|---|---|---|---|
| 1778061706 | 11.11° C | 42% | 1183.9 hPa | 0 mm | 0.89 m/s, 11° | 0 W/m² | - |
| 1778061404 | 11.11° C | 46% | 1183.7 hPa | 0 mm | 1.79 m/s, 281° | 0 W/m² | - |
| 1778061100 | 11.11° C | 46% | 1184 hPa | 0 mm | 1.79 m/s, 293° | 0 W/m² | - |
| 1778060798 | 10.56° C | 46% | 1183.8 hPa | 0 mm | 2.24 m/s, 287° | 0 W/m² | - |
| 1778060496 | 10° C | 49% | 1183.8 hPa | 0 mm | 1.34 m/s, 301° | 0 W/m² | - |
| 1778060194 | 10° C | 50% | 1183.7 hPa | 0 mm | 2.24 m/s, 294° | 0 W/m² | - |
| 1778059891 | 10.56° C | 50% | 1183.9 hPa | 0 mm | 1.34 m/s, 307° | 0 W/m² | - |
| 1778059588 | 10.56° C | 48% | 1183.6 hPa | 0 mm | 1.79 m/s, 306° | 0 W/m² | - |
| 1778059285 | 11.11° C | 48% | 1183.5 hPa | 0 mm | 1.79 m/s, 238° | 0 W/m² | - |
| 1778058983 | 11.11° C | 47% | 1183.6 hPa | 0 mm | 3.13 m/s, 243° | 0 W/m² | - |
| 1778058681 | 12.22° C | 45% | 1183.6 hPa | 0 mm | 1.34 m/s, 247° | 0 W/m² | - |
| 1778058379 | 11.67° C | 45% | 1183.5 hPa | 0 mm | 0.89 m/s, 263° | 0 W/m² | - |
| 1778058074 | 11.67° C | 45% | 1183.5 hPa | 0 mm | 0.45 m/s, 254° | 0 W/m² | - |
| 1778057772 | 11.67° C | 46% | 1183.7 hPa | 0 mm | 0.89 m/s, 254° | 0 W/m² | - |
| 1778057468 | 11.67° C | 47% | 1183.6 hPa | 0 mm | 1.79 m/s, 260° | 0 W/m² | - |
| 1778057165 | 11.67° C | 46% | 1183.7 hPa | 0 mm | 0.45 m/s, 219° | 0 W/m² | - |
| 1778056861 | 12.22° C | 46% | 1183.7 hPa | 0 mm | 0.45 m/s, 218° | 0 W/m² | - |
| 1778056558 | 11.67° C | 46% | 1183.7 hPa | 0 mm | 0.45 m/s, 221° | 0 W/m² | - |
| 1778056255 | 11.11° C | 48% | 1183.5 hPa | 0 mm | 1.79 m/s, 259° | 0 W/m² | - |
| 1778055952 | 11.11° C | 51% | 1183.9 hPa | 0 mm | 1.79 m/s, 242° | 0 W/m² | - |
| 1778055648 | 10.56° C | 52% | 1183.8 hPa | 0 mm | 1.34 m/s, 219° | 0 W/m² | - |
| 1778055346 | 10.56° C | 53% | 1183.6 hPa | 0 mm | 2.24 m/s, 243° | 0 W/m² | - |
| 1778055043 | 10.56° C | 53% | 1183.7 hPa | 0 mm | 2.24 m/s, 244° | 0 W/m² | - |
| 1778054741 | 10° C | 56% | 1183.7 hPa | 0 mm | 2.68 m/s, 272° | 0 W/m² | - |
| 1778054438 | 10.56° C | 54% | 1183.6 hPa | 0 mm | 4.02 m/s, 248° | 0 W/m² | - |
* Rain latest hour (hover to see other rain measurements)
** Current wind speed in m/s (hover to see current wind gust speed)